sensor_id;sensor_type;location;lat;lon;timestamp;P1;durP1;ratioP1;P2;durP2;ratioP2
11761;SDS011;5938;47.098;15.474;2022-11-12T00:03:36;12.80;;;10.20;;
11761;SDS011;5938;47.098;15.474;2022-11-12T00:07:40;17.13;;;10.83;;
11761;SDS011;5938;47.098;15.474;2022-11-12T00:11:43;12.17;;;8.63;;
11761;SDS011;5938;47.098;15.474;2022-11-12T00:15:46;11.10;;;9.17;;
11761;SDS011;5938;47.098;15.474;2022-11-12T00:19:51;13.60;;;8.63;;
11761;SDS011;5938;47.098;15.474;2022-11-12T00:23:55;11.13;;;9.23;;
11761;SDS011;5938;47.098;15.474;2022-11-12T00:28:02;11.80;;;8.80;;
11761;SDS011;5938;47.098;15.474;2022-11-12T00:32:06;13.97;;;9.10;;
11761;SDS011;5938;47.098;15.474;2022-11-12T00:36:12;13.53;;;9.27;;
11761;SDS011;5938;47.098;15.474;2022-11-12T00:40:15;16.10;;;10.70;;
11761;SDS011;5938;47.098;15.474;2022-11-12T00:44:20;11.27;;;8.20;;
11761;SDS011;5938;47.098;15.474;2022-11-12T00:48:23;11.67;;;8.87;;
11761;SDS011;5938;47.098;15.474;2022-11-12T00:52:29;10.30;;;8.07;;
11761;SDS011;5938;47.098;15.474;2022-11-12T00:56:32;9.33;;;8.30;;
11761;SDS011;5938;47.098;15.474;2022-11-12T01:00:36;10.40;;;8.07;;
11761;SDS011;5938;47.098;15.474;2022-11-12T01:04:39;9.50;;;7.67;;
11761;SDS011;5938;47.098;15.474;2022-11-12T01:08:44;13.53;;;9.17;;
11761;SDS011;5938;47.098;15.474;2022-11-12T01:12:48;15.13;;;8.77;;
11761;SDS011;5938;47.098;15.474;2022-11-12T01:16:53;12.50;;;8.30;;
11761;SDS011;5938;47.098;15.474;2022-11-12T01:20:58;9.50;;;7.43;;
11761;SDS011;5938;47.098;15.474;2022-11-12T01:25:05;11.40;;;7.17;;
11761;SDS011;5938;47.098;15.474;2022-11-12T01:29:08;12.27;;;7.60;;
11761;SDS011;5938;47.098;15.474;2022-11-12T01:33:12;12.03;;;8.80;;
11761;SDS011;5938;47.098;15.474;2022-11-12T01:37:15;12.03;;;8.30;;
11761;SDS011;5938;47.098;15.474;2022-11-12T01:41:20;13.43;;;7.70;;
11761;SDS011;5938;47.098;15.474;2022-11-12T01:45:25;11.83;;;7.70;;
11761;SDS011;5938;47.098;15.474;2022-11-12T01:49:30;11.20;;;7.40;;
11761;SDS011;5938;47.098;15.474;2022-11-12T01:53:38;9.40;;;7.67;;
11761;SDS011;5938;47.098;15.474;2022-11-12T01:57:48;9.60;;;7.10;;
11761;SDS011;5938;47.098;15.474;2022-11-12T02:01:54;10.83;;;7.23;;
11761;SDS011;5938;47.098;15.474;2022-11-12T02:05:59;20.30;;;8.00;;
11761;SDS011;5938;47.098;15.474;2022-11-12T02:10:06;8.60;;;6.70;;
11761;SDS011;5938;47.098;15.474;2022-11-12T02:14:13;12.13;;;6.77;;
11761;SDS011;5938;47.098;15.474;2022-11-12T02:18:17;12.43;;;7.50;;
11761;SDS011;5938;47.098;15.474;2022-11-12T02:22:22;10.57;;;7.73;;
11761;SDS011;5938;47.098;15.474;2022-11-12T02:26:25;11.00;;;7.17;;
11761;SDS011;5938;47.098;15.474;2022-11-12T02:30:36;13.07;;;7.07;;
11761;SDS011;5938;47.098;15.474;2022-11-12T02:34:41;8.10;;;6.50;;
11761;SDS011;5938;47.098;15.474;2022-11-12T02:38:46;7.97;;;6.00;;
11761;SDS011;5938;47.098;15.474;2022-11-12T02:42:49;10.70;;;7.33;;
11761;SDS011;5938;47.098;15.474;2022-11-12T02:46:52;10.83;;;7.70;;
11761;SDS011;5938;47.098;15.474;2022-11-12T02:50:56;10.43;;;6.70;;
11761;SDS011;5938;47.098;15.474;2022-11-12T02:55:01;8.37;;;5.67;;
11761;SDS011;5938;47.098;15.474;2022-11-12T02:59:04;6.60;;;5.73;;
11761;SDS011;5938;47.098;15.474;2022-11-12T03:03:07;10.27;;;6.40;;
11761;SDS011;5938;47.098;15.474;2022-11-12T03:07:11;20.40;;;7.30;;
11761;SDS011;5938;47.098;15.474;2022-11-12T03:11:16;7.87;;;5.83;;
11761;SDS011;5938;47.098;15.474;2022-11-12T03:15:19;8.47;;;5.97;;
11761;SDS011;5938;47.098;15.474;2022-11-12T03:19:22;9.53;;;7.70;;
11761;SDS011;5938;47.098;15.474;2022-11-12T03:23:26;9.57;;;6.43;;
11761;SDS011;5938;47.098;15.474;2022-11-12T03:27:31;6.53;;;5.33;;
11761;SDS011;5938;47.098;15.474;2022-11-12T03:31:34;14.97;;;6.33;;
11761;SDS011;5938;47.098;15.474;2022-11-12T03:35:37;7.00;;;5.70;;
11761;SDS011;5938;47.098;15.474;2022-11-12T03:39:41;11.00;;;6.13;;
11761;SDS011;5938;47.098;15.474;2022-11-12T03:43:46;7.27;;;5.60;;
11761;SDS011;5938;47.098;15.474;2022-11-12T03:47:50;10.97;;;6.70;;
11761;SDS011;5938;47.098;15.474;2022-11-12T03:51:55;7.50;;;6.07;;
11761;SDS011;5938;47.098;15.474;2022-11-12T03:55:58;9.43;;;6.50;;
11761;SDS011;5938;47.098;15.474;2022-11-12T04:00:03;7.87;;;5.23;;
11761;SDS011;5938;47.098;15.474;2022-11-12T04:04:08;14.10;;;8.60;;
11761;SDS011;5938;47.098;15.474;2022-11-12T04:08:12;9.60;;;6.93;;
11761;SDS011;5938;47.098;15.474;2022-11-12T04:12:34;9.10;;;6.97;;
11761;SDS011;5938;47.098;15.474;2022-11-12T04:16:55;11.40;;;8.37;;
11761;SDS011;5938;47.098;15.474;2022-11-12T04:21:16;7.33;;;6.33;;
11761;SDS011;5938;47.098;15.474;2022-11-12T04:25:37;11.10;;;6.73;;
11761;SDS011;5938;47.098;15.474;2022-11-12T04:29:59;10.73;;;6.93;;
11761;SDS011;5938;47.098;15.474;2022-11-12T04:34:20;9.40;;;6.93;;
11761;SDS011;5938;47.098;15.474;2022-11-12T04:38:34;11.57;;;7.50;;
11761;SDS011;5938;47.098;15.474;2022-11-12T04:42:37;9.40;;;6.00;;
11761;SDS011;5938;47.098;15.474;2022-11-12T04:47:00;13.23;;;7.10;;
11761;SDS011;5938;47.098;15.474;2022-11-12T04:51:04;11.17;;;7.00;;
11761;SDS011;5938;47.098;15.474;2022-11-12T04:55:29;12.60;;;6.90;;
11761;SDS011;5938;47.098;15.474;2022-11-12T04:59:33;8.63;;;6.63;;
11761;SDS011;5938;47.098;15.474;2022-11-12T05:03:36;13.10;;;9.27;;
11761;SDS011;5938;47.098;15.474;2022-11-12T05:07:41;14.10;;;9.33;;
11761;SDS011;5938;47.098;15.474;2022-11-12T05:11:44;10.93;;;8.13;;
11761;SDS011;5938;47.098;15.474;2022-11-12T05:15:48;12.13;;;7.47;;
11761;SDS011;5938;47.098;15.474;2022-11-12T05:19:51;11.03;;;8.50;;
11761;SDS011;5938;47.098;15.474;2022-11-12T05:23:56;12.13;;;8.00;;
11761;SDS011;5938;47.098;15.474;2022-11-12T05:28:00;10.20;;;7.93;;
11761;SDS011;5938;47.098;15.474;2022-11-12T05:32:03;9.70;;;7.23;;
11761;SDS011;5938;47.098;15.474;2022-11-12T05:36:07;9.97;;;6.77;;
11761;SDS011;5938;47.098;15.474;2022-11-12T05:40:12;14.83;;;10.50;;
11761;SDS011;5938;47.098;15.474;2022-11-12T05:44:16;12.57;;;7.20;;
11761;SDS011;5938;47.098;15.474;2022-11-12T05:48:19;9.20;;;6.80;;
11761;SDS011;5938;47.098;15.474;2022-11-12T05:52:25;10.50;;;6.90;;
11761;SDS011;5938;47.098;15.474;2022-11-12T05:56:29;10.10;;;6.90;;
11761;SDS011;5938;47.098;15.474;2022-11-12T06:00:33;9.00;;;6.50;;
11761;SDS011;5938;47.098;15.474;2022-11-12T06:04:39;9.93;;;7.50;;
11761;SDS011;5938;47.098;15.474;2022-11-12T06:08:43;8.33;;;7.17;;
11761;SDS011;5938;47.098;15.474;2022-11-12T06:12:47;10.50;;;7.07;;
11761;SDS011;5938;47.098;15.474;2022-11-12T06:16:51;8.73;;;6.83;;
11761;SDS011;5938;47.098;15.474;2022-11-12T06:20:59;10.17;;;7.80;;
11761;SDS011;5938;47.098;15.474;2022-11-12T06:25:22;9.90;;;6.70;;
11761;SDS011;5938;47.098;15.474;2022-11-12T06:29:27;9.47;;;7.70;;
11761;SDS011;5938;47.098;15.474;2022-11-12T06:33:31;8.97;;;6.90;;
11761;SDS011;5938;47.098;15.474;2022-11-12T06:37:34;9.17;;;6.93;;
11761;SDS011;5938;47.098;15.474;2022-11-12T06:41:37;11.27;;;8.67;;
11761;SDS011;5938;47.098;15.474;2022-11-12T06:45:42;11.10;;;8.87;;
11761;SDS011;5938;47.098;15.474;2022-11-12T06:49:45;14.20;;;12.20;;
11761;SDS011;5938;47.098;15.474;2022-11-12T06:53:48;11.80;;;10.60;;
11761;SDS011;5938;47.098;15.474;2022-11-12T06:57:52;18.63;;;12.97;;
11761;SDS011;5938;47.098;15.474;2022-11-12T07:01:57;12.00;;;9.53;;
11761;SDS011;5938;47.098;15.474;2022-11-12T07:06:04;12.60;;;9.00;;
11761;SDS011;5938;47.098;15.474;2022-11-12T07:10:09;10.73;;;8.73;;
11761;SDS011;5938;47.098;15.474;2022-11-12T07:14:12;12.80;;;9.80;;
11761;SDS011;5938;47.098;15.474;2022-11-12T07:18:17;11.90;;;8.83;;
11761;SDS011;5938;47.098;15.474;2022-11-12T07:22:20;15.07;;;12.47;;
11761;SDS011;5938;47.098;15.474;2022-11-12T07:26:24;12.60;;;10.83;;
11761;SDS011;5938;47.098;15.474;2022-11-12T07:30:28;11.53;;;10.30;;
11761;SDS011;5938;47.098;15.474;2022-11-12T07:34:33;11.10;;;9.43;;
11761;SDS011;5938;47.098;15.474;2022-11-12T07:38:37;21.23;;;16.63;;
11761;SDS011;5938;47.098;15.474;2022-11-12T07:42:41;20.33;;;15.57;;
11761;SDS011;5938;47.098;15.474;2022-11-12T07:46:45;17.77;;;13.20;;
11761;SDS011;5938;47.098;15.474;2022-11-12T07:50:49;12.43;;;10.47;;
11761;SDS011;5938;47.098;15.474;2022-11-12T07:54:53;13.00;;;9.50;;
11761;SDS011;5938;47.098;15.474;2022-11-12T07:58:56;9.50;;;8.40;;
11761;SDS011;5938;47.098;15.474;2022-11-12T08:02:59;10.47;;;9.07;;
11761;SDS011;5938;47.098;15.474;2022-11-12T08:07:04;11.10;;;8.57;;
11761;SDS011;5938;47.098;15.474;2022-11-12T08:11:07;11.33;;;10.10;;
11761;SDS011;5938;47.098;15.474;2022-11-12T08:15:11;10.30;;;9.17;;
11761;SDS011;5938;47.098;15.474;2022-11-12T08:19:14;17.63;;;10.60;;
11761;SDS011;5938;47.098;15.474;2022-11-12T08:23:19;15.47;;;12.47;;
11761;SDS011;5938;47.098;15.474;2022-11-12T08:27:22;18.80;;;14.83;;
11761;SDS011;5938;47.098;15.474;2022-11-12T08:31:25;15.73;;;13.90;;
11761;SDS011;5938;47.098;15.474;2022-11-12T08:35:29;17.23;;;14.93;;
11761;SDS011;5938;47.098;15.474;2022-11-12T08:39:35;16.67;;;13.97;;
11761;SDS011;5938;47.098;15.474;2022-11-12T08:43:40;23.73;;;14.30;;
11761;SDS011;5938;47.098;15.474;2022-11-12T08:47:44;17.83;;;13.80;;
11761;SDS011;5938;47.098;15.474;2022-11-12T08:51:47;15.83;;;12.90;;
11761;SDS011;5938;47.098;15.474;2022-11-12T08:55:52;13.17;;;11.10;;
11761;SDS011;5938;47.098;15.474;2022-11-12T08:59:56;11.63;;;10.37;;
11761;SDS011;5938;47.098;15.474;2022-11-12T09:04:00;11.10;;;9.27;;
11761;SDS011;5938;47.098;15.474;2022-11-12T09:08:04;10.73;;;8.63;;
11761;SDS011;5938;47.098;15.474;2022-11-12T09:12:11;10.43;;;8.93;;
11761;SDS011;5938;47.098;15.474;2022-11-12T09:16:20;12.93;;;8.90;;
11761;SDS011;5938;47.098;15.474;2022-11-12T09:20:28;10.97;;;8.90;;
11761;SDS011;5938;47.098;15.474;2022-11-12T09:24:34;8.87;;;7.33;;
11761;SDS011;5938;47.098;15.474;2022-11-12T09:28:39;11.60;;;7.23;;
11761;SDS011;5938;47.098;15.474;2022-11-12T09:32:42;9.87;;;8.70;;
11761;SDS011;5938;47.098;15.474;2022-11-12T09:36:45;10.83;;;9.67;;
11761;SDS011;5938;47.098;15.474;2022-11-12T09:40:55;9.50;;;8.27;;
11761;SDS011;5938;47.098;15.474;2022-11-12T09:49:34;6.70;;;4.67;;
11761;SDS011;5938;47.098;15.474;2022-11-12T09:53:53;4.47;;;4.07;;
11761;SDS011;5938;47.098;15.474;2022-11-12T09:58:16;4.33;;;3.47;;
11761;SDS011;5938;47.098;15.474;2022-11-12T10:02:31;4.00;;;3.60;;
11761;SDS011;5938;47.098;15.474;2022-11-12T10:06:41;3.57;;;3.27;;
11761;SDS011;5938;47.098;15.474;2022-11-12T10:10:52;3.50;;;3.20;;
11761;SDS011;5938;47.098;15.474;2022-11-12T10:15:19;2.80;;;2.50;;
11761;SDS011;5938;47.098;15.474;2022-11-12T10:19:54;6.50;;;3.67;;
11761;SDS011;5938;47.098;15.474;2022-11-12T10:24:06;4.10;;;3.80;;
11761;SDS011;5938;47.098;15.474;2022-11-12T10:32:44;3.23;;;2.90;;
11761;SDS011;5938;47.098;15.474;2022-11-12T10:36:52;5.40;;;4.60;;
11761;SDS011;5938;47.098;15.474;2022-11-12T10:40:59;4.20;;;3.80;;
11761;SDS011;5938;47.098;15.474;2022-11-12T10:45:20;4.03;;;3.63;;
11761;SDS011;5938;47.098;15.474;2022-11-12T10:49:25;5.47;;;4.83;;
11761;SDS011;5938;47.098;15.474;2022-11-12T10:53:32;6.13;;;5.63;;
11761;SDS011;5938;47.098;15.474;2022-11-12T10:57:37;7.83;;;5.60;;
11761;SDS011;5938;47.098;15.474;2022-11-12T11:01:41;7.33;;;5.53;;
11761;SDS011;5938;47.098;15.474;2022-11-12T11:05:50;16.83;;;7.40;;
11761;SDS011;5938;47.098;15.474;2022-11-12T11:10:11;10.27;;;5.87;;
11761;SDS011;5938;47.098;15.474;2022-11-12T11:14:36;7.70;;;7.00;;
11761;SDS011;5938;47.098;15.474;2022-11-12T11:18:46;9.27;;;7.00;;
11761;SDS011;5938;47.098;15.474;2022-11-12T11:22:58;6.27;;;5.60;;
11761;SDS011;5938;47.098;15.474;2022-11-12T11:27:10;7.00;;;6.20;;
11761;SDS011;5938;47.098;15.474;2022-11-12T11:31:24;8.20;;;6.83;;
11761;SDS011;5938;47.098;15.474;2022-11-12T11:35:43;7.33;;;6.63;;
11761;SDS011;5938;47.098;15.474;2022-11-12T11:39:58;10.00;;;8.63;;
11761;SDS011;5938;47.098;15.474;2022-11-12T11:44:20;10.00;;;8.67;;
11761;SDS011;5938;47.098;15.474;2022-11-12T11:48:35;10.87;;;9.83;;
11761;SDS011;5938;47.098;15.474;2022-11-12T11:52:50;11.40;;;9.13;;
11761;SDS011;5938;47.098;15.474;2022-11-12T11:57:07;10.63;;;9.63;;
11761;SDS011;5938;47.098;15.474;2022-11-12T12:01:16;11.57;;;10.23;;
11761;SDS011;5938;47.098;15.474;2022-11-12T12:05:31;10.17;;;9.27;;
11761;SDS011;5938;47.098;15.474;2022-11-12T12:09:44;10.40;;;9.30;;
11761;SDS011;5938;47.098;15.474;2022-11-12T12:13:56;11.87;;;10.50;;
11761;SDS011;5938;47.098;15.474;2022-11-12T12:18:24;9.87;;;8.97;;
11761;SDS011;5938;47.098;15.474;2022-11-12T12:22:35;11.13;;;10.07;;
11761;SDS011;5938;47.098;15.474;2022-11-12T12:26:44;12.00;;;10.90;;
11761;SDS011;5938;47.098;15.474;2022-11-12T12:30:53;10.73;;;9.83;;
11761;SDS011;5938;47.098;15.474;2022-11-12T12:35:13;11.97;;;10.77;;
11761;SDS011;5938;47.098;15.474;2022-11-12T12:39:25;13.97;;;11.40;;
11761;SDS011;5938;47.098;15.474;2022-11-12T12:43:34;11.70;;;10.33;;
11761;SDS011;5938;47.098;15.474;2022-11-12T12:47:40;11.57;;;10.47;;
11761;SDS011;5938;47.098;15.474;2022-11-12T12:51:47;11.27;;;10.13;;
11761;SDS011;5938;47.098;15.474;2022-11-12T12:55:56;8.67;;;7.87;;
11761;SDS011;5938;47.098;15.474;2022-11-12T13:08:56;4.90;;;2.80;;
11761;SDS011;5938;47.098;15.474;2022-11-12T13:13:03;1.10;;;1.00;;
11761;SDS011;5938;47.098;15.474;2022-11-12T13:17:47;2.30;;;1.67;;
11761;SDS011;5938;47.098;15.474;2022-11-12T13:30:55;2.83;;;1.50;;
11761;SDS011;5938;47.098;15.474;2022-11-12T13:35:12;2.23;;;1.47;;
11761;SDS011;5938;47.098;15.474;2022-11-12T13:39:33;2.37;;;1.77;;
11761;SDS011;5938;47.098;15.474;2022-11-12T13:43:40;1.27;;;1.17;;
11761;SDS011;5938;47.098;15.474;2022-11-12T13:47:44;1.83;;;1.73;;
11761;SDS011;5938;47.098;15.474;2022-11-12T13:51:49;4.17;;;1.40;;
11761;SDS011;5938;47.098;15.474;2022-11-12T13:55:53;1.63;;;1.47;;
11761;SDS011;5938;47.098;15.474;2022-11-12T14:00:08;2.13;;;1.30;;
11761;SDS011;5938;47.098;15.474;2022-11-12T14:04:25;1.70;;;1.57;;
11761;SDS011;5938;47.098;15.474;2022-11-12T14:08:44;3.10;;;1.70;;
11761;SDS011;5938;47.098;15.474;2022-11-12T14:13:07;2.03;;;1.57;;
11761;SDS011;5938;47.098;15.474;2022-11-12T14:17:29;4.97;;;2.10;;
11761;SDS011;5938;47.098;15.474;2022-11-12T14:21:39;2.07;;;1.50;;
11761;SDS011;5938;47.098;15.474;2022-11-12T14:25:46;2.73;;;2.03;;
11761;SDS011;5938;47.098;15.474;2022-11-12T14:30:03;2.33;;;2.13;;
11761;SDS011;5938;47.098;15.474;2022-11-12T14:34:20;6.03;;;2.97;;
11761;SDS011;5938;47.098;15.474;2022-11-12T14:38:24;2.23;;;2.03;;
11761;SDS011;5938;47.098;15.474;2022-11-12T14:42:31;2.43;;;2.23;;
11761;SDS011;5938;47.098;15.474;2022-11-12T14:46:37;3.70;;;2.67;;
11761;SDS011;5938;47.098;15.474;2022-11-12T14:50:47;3.10;;;2.80;;
11761;SDS011;5938;47.098;15.474;2022-11-12T14:54:54;4.00;;;2.60;;
11761;SDS011;5938;47.098;15.474;2022-11-12T14:59:00;3.90;;;3.50;;
11761;SDS011;5938;47.098;15.474;2022-11-12T15:03:14;7.77;;;3.43;;
11761;SDS011;5938;47.098;15.474;2022-11-12T15:07:25;3.43;;;3.10;;
11761;SDS011;5938;47.098;15.474;2022-11-12T15:11:30;7.50;;;3.43;;
11761;SDS011;5938;47.098;15.474;2022-11-12T15:15:37;9.53;;;3.73;;
11761;SDS011;5938;47.098;15.474;2022-11-12T15:19:51;4.60;;;3.53;;
11761;SDS011;5938;47.098;15.474;2022-11-12T15:23:58;4.33;;;3.00;;
11761;SDS011;5938;47.098;15.474;2022-11-12T15:28:11;5.03;;;3.33;;
11761;SDS011;5938;47.098;15.474;2022-11-12T15:32:30;7.13;;;4.20;;
11761;SDS011;5938;47.098;15.474;2022-11-12T15:36:34;6.13;;;3.53;;
11761;SDS011;5938;47.098;15.474;2022-11-12T15:40:50;5.03;;;3.97;;
11761;SDS011;5938;47.098;15.474;2022-11-12T15:44:58;9.03;;;4.30;;
11761;SDS011;5938;47.098;15.474;2022-11-12T15:49:09;10.27;;;5.60;;
11761;SDS011;5938;47.098;15.474;2022-11-12T15:53:14;5.90;;;4.60;;
11761;SDS011;5938;47.098;15.474;2022-11-12T15:57:21;8.57;;;5.53;;
11761;SDS011;5938;47.098;15.474;2022-11-12T16:01:27;9.73;;;5.43;;
11761;SDS011;5938;47.098;15.474;2022-11-12T16:05:32;8.97;;;6.00;;
11761;SDS011;5938;47.098;15.474;2022-11-12T16:09:35;7.57;;;5.10;;
11761;SDS011;5938;47.098;15.474;2022-11-12T16:13:41;9.50;;;5.03;;
11761;SDS011;5938;47.098;15.474;2022-11-12T16:17:44;6.60;;;5.20;;
11761;SDS011;5938;47.098;15.474;2022-11-12T16:21:48;10.03;;;5.23;;
11761;SDS011;5938;47.098;15.474;2022-11-12T16:25:52;8.60;;;6.10;;
11761;SDS011;5938;47.098;15.474;2022-11-12T16:29:57;7.13;;;6.00;;
11761;SDS011;5938;47.098;15.474;2022-11-12T16:34:01;9.67;;;5.67;;
11761;SDS011;5938;47.098;15.474;2022-11-12T16:38:08;7.40;;;5.70;;
11761;SDS011;5938;47.098;15.474;2022-11-12T16:42:14;7.47;;;6.00;;
11761;SDS011;5938;47.098;15.474;2022-11-12T16:46:22;9.63;;;6.30;;
11761;SDS011;5938;47.098;15.474;2022-11-12T16:50:29;10.10;;;7.03;;
11761;SDS011;5938;47.098;15.474;2022-11-12T16:54:34;9.43;;;5.93;;
11761;SDS011;5938;47.098;15.474;2022-11-12T16:58:37;10.73;;;5.60;;
11761;SDS011;5938;47.098;15.474;2022-11-12T17:02:55;12.33;;;6.50;;
11761;SDS011;5938;47.098;15.474;2022-11-12T17:11:07;9.60;;;6.50;;
11761;SDS011;5938;47.098;15.474;2022-11-12T17:15:11;11.13;;;6.50;;
11761;SDS011;5938;47.098;15.474;2022-11-12T17:19:16;9.77;;;6.33;;
11761;SDS011;5938;47.098;15.474;2022-11-12T17:23:20;7.03;;;5.97;;
11761;SDS011;5938;47.098;15.474;2022-11-12T17:31:36;6.93;;;5.83;;
11761;SDS011;5938;47.098;15.474;2022-11-12T17:35:41;9.80;;;7.90;;
11761;SDS011;5938;47.098;15.474;2022-11-12T17:39:46;9.90;;;8.63;;
11761;SDS011;5938;47.098;15.474;2022-11-12T17:43:52;12.33;;;8.60;;
11761;SDS011;5938;47.098;15.474;2022-11-12T17:47:57;11.03;;;7.20;;
11761;SDS011;5938;47.098;15.474;2022-11-12T17:52:02;13.50;;;8.23;;
11761;SDS011;5938;47.098;15.474;2022-11-12T17:56:07;12.53;;;8.60;;
11761;SDS011;5938;47.098;15.474;2022-11-12T18:00:14;9.37;;;7.67;;
11761;SDS011;5938;47.098;15.474;2022-11-12T18:04:20;8.27;;;6.70;;
11761;SDS011;5938;47.098;15.474;2022-11-12T18:08:28;10.23;;;7.70;;
11761;SDS011;5938;47.098;15.474;2022-11-12T18:12:32;12.07;;;8.40;;
11761;SDS011;5938;47.098;15.474;2022-11-12T18:16:36;8.97;;;8.17;;
11761;SDS011;5938;47.098;15.474;2022-11-12T18:20:41;9.40;;;8.50;;
11761;SDS011;5938;47.098;15.474;2022-11-12T18:24:46;16.30;;;9.20;;
11761;SDS011;5938;47.098;15.474;2022-11-12T18:28:51;10.47;;;8.50;;
11761;SDS011;5938;47.098;15.474;2022-11-12T18:32:57;10.07;;;7.63;;
11761;SDS011;5938;47.098;15.474;2022-11-12T18:37:04;9.43;;;8.13;;
11761;SDS011;5938;47.098;15.474;2022-11-12T18:41:10;13.10;;;9.17;;
11761;SDS011;5938;47.098;15.474;2022-11-12T18:45:17;13.17;;;8.73;;
11761;SDS011;5938;47.098;15.474;2022-11-12T18:49:21;12.90;;;7.93;;
11761;SDS011;5938;47.098;15.474;2022-11-12T18:53:26;9.20;;;8.10;;
11761;SDS011;5938;47.098;15.474;2022-11-12T18:57:34;10.97;;;7.87;;
11761;SDS011;5938;47.098;15.474;2022-11-12T19:01:40;10.67;;;8.27;;
11761;SDS011;5938;47.098;15.474;2022-11-12T19:05:45;9.97;;;8.97;;
11761;SDS011;5938;47.098;15.474;2022-11-12T19:10:17;9.43;;;8.43;;
11761;SDS011;5938;47.098;15.474;2022-11-12T19:14:34;12.13;;;8.37;;
11761;SDS011;5938;47.098;15.474;2022-11-12T19:18:44;13.03;;;7.07;;
11761;SDS011;5938;47.098;15.474;2022-11-12T19:22:56;8.87;;;7.83;;
11761;SDS011;5938;47.098;15.474;2022-11-12T19:27:04;11.03;;;8.57;;
11761;SDS011;5938;47.098;15.474;2022-11-12T19:31:14;10.27;;;7.50;;
11761;SDS011;5938;47.098;15.474;2022-11-12T19:35:21;8.73;;;7.40;;
11761;SDS011;5938;47.098;15.474;2022-11-12T19:39:27;13.80;;;8.60;;
11761;SDS011;5938;47.098;15.474;2022-11-12T19:43:36;10.87;;;8.83;;
11761;SDS011;5938;47.098;15.474;2022-11-12T19:47:48;12.30;;;10.43;;
11761;SDS011;5938;47.098;15.474;2022-11-12T19:51:54;9.53;;;7.90;;
11761;SDS011;5938;47.098;15.474;2022-11-12T19:55:58;8.97;;;8.07;;
11761;SDS011;5938;47.098;15.474;2022-11-12T20:00:03;9.20;;;7.70;;
11761;SDS011;5938;47.098;15.474;2022-11-12T20:04:12;10.57;;;8.10;;
11761;SDS011;5938;47.098;15.474;2022-11-12T20:08:23;9.70;;;8.20;;
11761;SDS011;5938;47.098;15.474;2022-11-12T20:12:28;11.90;;;8.53;;
11761;SDS011;5938;47.098;15.474;2022-11-12T20:16:33;10.40;;;7.70;;
11761;SDS011;5938;47.098;15.474;2022-11-12T20:20:39;12.60;;;8.20;;
11761;SDS011;5938;47.098;15.474;2022-11-12T20:24:47;12.60;;;8.57;;
11761;SDS011;5938;47.098;15.474;2022-11-12T20:28:51;11.17;;;8.03;;
11761;SDS011;5938;47.098;15.474;2022-11-12T20:32:57;15.67;;;9.70;;
11761;SDS011;5938;47.098;15.474;2022-11-12T20:37:03;10.10;;;9.07;;
11761;SDS011;5938;47.098;15.474;2022-11-12T20:41:11;12.77;;;8.20;;
11761;SDS011;5938;47.098;15.474;2022-11-12T20:45:25;9.43;;;8.33;;
11761;SDS011;5938;47.098;15.474;2022-11-12T20:49:30;13.60;;;9.33;;
11761;SDS011;5938;47.098;15.474;2022-11-12T20:53:35;11.90;;;8.73;;
11761;SDS011;5938;47.098;15.474;2022-11-12T20:57:39;15.67;;;9.80;;
11761;SDS011;5938;47.098;15.474;2022-11-12T21:01:43;14.07;;;8.80;;
11761;SDS011;5938;47.098;15.474;2022-11-12T21:05:47;13.63;;;9.60;;
11761;SDS011;5938;47.098;15.474;2022-11-12T21:09:52;15.03;;;9.60;;
11761;SDS011;5938;47.098;15.474;2022-11-12T21:13:57;10.77;;;9.13;;
11761;SDS011;5938;47.098;15.474;2022-11-12T21:18:01;13.80;;;12.20;;
11761;SDS011;5938;47.098;15.474;2022-11-12T21:22:04;19.47;;;14.37;;
11761;SDS011;5938;47.098;15.474;2022-11-12T21:26:11;15.90;;;13.87;;
11761;SDS011;5938;47.098;15.474;2022-11-12T21:30:16;25.83;;;20.20;;
11761;SDS011;5938;47.098;15.474;2022-11-12T21:34:20;23.20;;;20.40;;
11761;SDS011;5938;47.098;15.474;2022-11-12T21:38:23;24.53;;;21.70;;
11761;SDS011;5938;47.098;15.474;2022-11-12T21:42:29;20.40;;;18.03;;
11761;SDS011;5938;47.098;15.474;2022-11-12T21:46:33;24.53;;;21.40;;
11761;SDS011;5938;47.098;15.474;2022-11-12T21:50:37;19.20;;;16.80;;
11761;SDS011;5938;47.098;15.474;2022-11-12T21:54:41;18.07;;;15.10;;
11761;SDS011;5938;47.098;15.474;2022-11-12T21:58:46;21.07;;;17.77;;
11761;SDS011;5938;47.098;15.474;2022-11-12T22:02:49;22.37;;;16.80;;
11761;SDS011;5938;47.098;15.474;2022-11-12T22:06:56;19.30;;;17.13;;
11761;SDS011;5938;47.098;15.474;2022-11-12T22:11:00;20.17;;;17.47;;
11761;SDS011;5938;47.098;15.474;2022-11-12T22:15:13;22.30;;;16.30;;
11761;SDS011;5938;47.098;15.474;2022-11-12T22:19:24;20.20;;;17.60;;
11761;SDS011;5938;47.098;15.474;2022-11-12T22:23:27;20.57;;;17.73;;
11761;SDS011;5938;47.098;15.474;2022-11-12T22:27:33;18.90;;;16.90;;
11761;SDS011;5938;47.098;15.474;2022-11-12T22:31:37;24.43;;;16.47;;
11761;SDS011;5938;47.098;15.474;2022-11-12T22:35:41;15.37;;;13.77;;
11761;SDS011;5938;47.098;15.474;2022-11-12T22:39:44;15.13;;;13.53;;
11761;SDS011;5938;47.098;15.474;2022-11-12T22:43:48;18.03;;;13.33;;
11761;SDS011;5938;47.098;15.474;2022-11-12T22:47:53;16.30;;;13.30;;
11761;SDS011;5938;47.098;15.474;2022-11-12T22:51:56;18.23;;;14.40;;
11761;SDS011;5938;47.098;15.474;2022-11-12T22:56:00;15.57;;;12.27;;
11761;SDS011;5938;47.098;15.474;2022-11-12T23:00:06;13.63;;;11.73;;
11761;SDS011;5938;47.098;15.474;2022-11-12T23:04:13;16.87;;;14.40;;
11761;SDS011;5938;47.098;15.474;2022-11-12T23:08:16;18.27;;;12.23;;
11761;SDS011;5938;47.098;15.474;2022-11-12T23:12:19;13.13;;;10.53;;
11761;SDS011;5938;47.098;15.474;2022-11-12T23:16:23;13.20;;;11.67;;
11761;SDS011;5938;47.098;15.474;2022-11-12T23:20:31;12.70;;;11.17;;
11761;SDS011;5938;47.098;15.474;2022-11-12T23:24:34;13.27;;;11.80;;
11761;SDS011;5938;47.098;15.474;2022-11-12T23:28:37;12.87;;;11.57;;
11761;SDS011;5938;47.098;15.474;2022-11-12T23:32:41;13.20;;;10.37;;
11761;SDS011;5938;47.098;15.474;2022-11-12T23:36:46;14.10;;;11.37;;
11761;SDS011;5938;47.098;15.474;2022-11-12T23:40:52;13.43;;;9.93;;
11761;SDS011;5938;47.098;15.474;2022-11-12T23:44:56;11.93;;;10.67;;
11761;SDS011;5938;47.098;15.474;2022-11-12T23:49:00;13.43;;;10.93;;
11761;SDS011;5938;47.098;15.474;2022-11-12T23:53:04;13.43;;;11.73;;
11761;SDS011;5938;47.098;15.474;2022-11-12T23:57:08;14.30;;;11.97;;
